Time;durP1;ratioP1;P1;durP2;ratioP2;P2;SDS_P1;SDS_P2;PMS_P1;PMS_P2;Temp;Humidity;BMP_temperature;BMP_pressure;BME280_temperature;BME280_humidity;BME280_pressure;Samples;Min_cycle;Max_cycle;Signal;HPM_P1;HPM_P2
2021/09/01 02:47:48;;;;;;;3.17;1.20;;;10.90;99.90;;;;;;5246686;22;87828;-77
2021/09/01 02:50:15;;;;;;;5.25;1.50;;;10.80;99.90;;;;;;4933415;28;86017;-77
2021/09/01 02:52:44;;;;;;;3.17;1.50;;;10.80;99.90;;;;;;4935195;28;88231;-77
2021/09/01 02:55:10;;;;;;;5.05;1.55;;;10.80;99.90;;;;;;4934366;28;87009;-76
2021/09/01 02:57:36;;;;;;;4.63;1.45;;;10.80;99.90;;;;;;4943910;28;87756;-77
2021/09/01 03:00:04;;;;;;;4.45;1.75;;;10.70;99.90;;;;;;4935033;28;87376;-76
2021/09/01 03:02:30;;;;;;;4.05;1.98;;;10.70;99.90;;;;;;4938633;28;88430;-76
2021/09/01 03:04:56;;;;;;;6.05;2.10;;;10.70;99.90;;;;;;4937422;28;87046;-76
2021/09/01 03:07:21;;;;;;;7.32;1.98;;;10.80;99.90;;;;;;4936245;28;88074;-77
2021/09/01 03:09:47;;;;;;;5.65;2.60;;;10.80;99.90;;;;;;4936190;28;86993;-76
2021/09/01 03:12:13;;;;;;;8.65;2.65;;;10.80;99.90;;;;;;4933315;28;87628;-77
2021/09/01 03:14:39;;;;;;;4.88;2.53;;;10.80;99.90;;;;;;4936947;28;86812;-75
2021/09/01 03:17:05;;;;;;;8.40;2.50;;;10.70;99.90;;;;;;4937370;28;87042;-75
2021/09/01 03:19:30;;;;;;;9.45;2.67;;;10.70;99.90;;;;;;4936138;28;87048;-75
2021/09/01 03:21:56;;;;;;;6.18;3.03;;;10.70;99.90;;;;;;4935161;28;88975;-75
2021/09/01 03:24:22;;;;;;;6.80;2.60;;;10.70;99.90;;;;;;4936826;28;87870;-74
2021/09/01 03:26:47;;;;;;;6.00;2.60;;;10.60;99.90;;;;;;4936374;28;87143;-75
2021/09/01 03:29:13;;;;;;;5.90;2.40;;;10.60;99.90;;;;;;4929283;28;87112;-74
2021/09/01 03:31:39;;;;;;;7.55;2.92;;;10.60;99.90;;;;;;4934220;28;87307;-75
2021/09/01 03:34:05;;;;;;;7.65;2.72;;;10.60;99.90;;;;;;4932473;28;87106;-74
2021/09/01 03:36:30;;;;;;;7.43;2.58;;;10.60;99.90;;;;;;4937534;28;87734;-74
2021/09/01 03:38:56;;;;;;;7.50;3.00;;;10.50;99.90;;;;;;4935066;28;86251;-75
2021/09/01 03:41:22;;;;;;;6.80;2.35;;;10.40;99.90;;;;;;4946081;28;87032;-74
2021/09/01 03:43:47;;;;;;;7.30;2.25;;;10.50;99.90;;;;;;4944671;28;87050;-73
2021/09/01 03:46:13;;;;;;;4.78;2.08;;;10.40;99.90;;;;;;4950468;28;87729;-75
2021/09/01 03:48:39;;;;;;;8.30;2.10;;;10.40;99.90;;;;;;4945207;28;87199;-75
2021/09/01 03:51:04;;;;;;;5.38;2.17;;;10.40;99.90;;;;;;4934016;28;88492;-74
2021/09/01 03:53:30;;;;;;;7.93;2.47;;;10.30;99.90;;;;;;4938000;28;87971;-74
2021/09/01 03:55:56;;;;;;;4.65;1.85;;;10.40;99.90;;;;;;4931244;28;87159;-74
2021/09/01 03:58:21;;;;;;;4.70;2.05;;;10.30;99.90;;;;;;4937151;28;86915;-74
2021/09/01 04:00:47;;;;;;;4.30;1.77;;;10.30;99.90;;;;;;4932921;28;87425;-74
2021/09/01 04:03:13;;;;;;;4.25;1.88;;;10.30;99.90;;;;;;4926132;28;86561;-74
2021/09/01 04:05:39;;;;;;;5.35;1.98;;;10.30;99.90;;;;;;4937079;28;87154;-74
2021/09/01 04:08:05;;;;;;;4.57;2.00;;;10.30;99.90;;;;;;4931325;28;87005;-74
2021/09/01 04:10:31;;;;;;;8.52;2.03;;;10.30;99.90;;;;;;4931638;28;89285;-74
2021/09/01 04:12:56;;;;;;;5.25;2.30;;;10.30;99.90;;;;;;4924825;28;89161;-75
2021/09/01 04:15:22;;;;;;;8.77;2.22;;;10.30;99.90;;;;;;4935832;28;87129;-74
2021/09/01 04:17:48;;;;;;;4.32;2.00;;;10.30;99.90;;;;;;4925974;28;87113;-74
2021/09/01 04:20:14;;;;;;;4.43;1.75;;;10.30;99.90;;;;;;4929901;28;87325;-74
2021/09/01 04:22:39;;;;;;;6.40;1.88;;;10.30;99.90;;;;;;4932252;28;88392;-75
2021/09/01 04:25:06;;;;;;;5.03;2.00;;;10.40;99.90;;;;;;4930352;28;87044;-75
2021/09/01 04:27:31;;;;;;;5.45;2.05;;;10.30;99.90;;;;;;4932333;28;86258;-74
2021/09/01 04:29:57;;;;;;;5.25;2.33;;;10.30;99.90;;;;;;4933414;28;87758;-74
2021/09/01 04:32:23;;;;;;;6.57;2.00;;;10.30;99.90;;;;;;4935744;28;87668;-74
2021/09/01 04:34:48;;;;;;;5.85;1.83;;;10.30;99.90;;;;;;4936640;28;87943;-74
2021/09/01 04:37:14;;;;;;;6.20;2.00;;;10.30;99.90;;;;;;4931192;28;87000;-74
2021/09/01 04:39:40;;;;;;;5.75;2.20;;;10.30;99.90;;;;;;4938695;28;90338;-74
2021/09/01 04:42:06;;;;;;;5.22;1.92;;;10.30;99.90;;;;;;4937399;28;87119;-74
2021/09/01 04:44:32;;;;;;;5.97;2.08;;;10.30;99.90;;;;;;4932237;28;87113;-74
2021/09/01 04:46:58;;;;;;;4.30;1.75;;;10.30;99.90;;;;;;4934346;28;86984;-75
2021/09/01 04:49:25;;;;;;;5.80;1.95;;;10.30;99.90;;;;;;4935809;28;87802;-75
2021/09/01 04:51:50;;;;;;;4.68;1.70;;;10.40;99.90;;;;;;4933795;28;86493;-74
2021/09/01 04:54:16;;;;;;;4.43;1.60;;;10.40;99.90;;;;;;4930700;28;87007;-75
2021/09/01 04:56:42;;;;;;;4.95;1.65;;;10.40;99.90;;;;;;4937467;28;87058;-75
2021/09/01 04:59:08;;;;;;;8.02;2.05;;;10.50;99.90;;;;;;4935501;28;88262;-75
2021/09/01 05:01:34;;;;;;;4.70;1.95;;;10.80;99.90;;;;;;4929802;28;89007;-75
2021/09/01 05:04:00;;;;;;;5.30;1.48;;;11.20;99.90;;;;;;4933388;28;87084;-75
2021/09/01 05:06:27;;;;;;;7.55;1.70;;;11.50;99.90;;;;;;4929259;28;87026;-75
2021/09/01 05:08:56;;;;;;;5.50;1.60;;;11.90;99.90;;;;;;4937302;28;88315;-75
2021/09/01 05:11:22;;;;;;;4.93;1.67;;;12.50;99.90;;;;;;4935191;28;87542;-76
2021/09/01 05:13:48;;;;;;;6.28;1.65;;;13.10;99.90;;;;;;4922954;28;87519;-73
2021/09/01 05:16:14;;;;;;;4.97;1.60;;;14.10;99.90;;;;;;4931871;28;86433;-73
2021/09/01 05:18:40;;;;;;;3.85;1.13;;;14.80;99.90;;;;;;4933825;28;87368;-74
2021/09/01 05:21:11;;;;;;;5.57;1.70;;;15.60;99.90;;;;;;4931931;28;87957;-73
2021/09/01 05:23:36;;;;;;;6.10;1.52;;;16.50;99.90;;;;;;4926199;28;87922;-73
2021/09/01 05:26:06;;;;;;;5.65;1.65;;;17.30;97.40;;;;;;4932690;28;87356;-75
2021/09/01 05:28:34;;;;;;;9.27;2.10;;;18.00;93.20;;;;;;4936664;28;87578;-76
2021/09/01 05:31:02;;;;;;;3.88;1.85;;;18.70;89.10;;;;;;4932735;28;87331;-76
2021/09/01 05:33:31;;;;;;;7.75;2.28;;;19.30;84.80;;;;;;4927217;28;86928;-76
2021/09/01 05:35:57;;;;;;;8.55;2.25;;;20.00;81.50;;;;;;4936004;28;87319;-76
2021/09/01 05:38:24;;;;;;;5.68;2.70;;;20.70;76.20;;;;;;4949355;28;89001;-76
2021/09/01 05:40:51;;;;;;;6.18;2.40;;;21.40;72.10;;;;;;4934985;28;87390;-76
2021/09/01 05:43:19;;;;;;;6.65;1.85;;;21.70;71.80;;;;;;4936878;28;87027;-74
2021/09/01 05:45:47;;;;;;;8.00;2.20;;;22.50;65.90;;;;;;4924896;28;86980;-76
2021/09/01 05:48:13;;;;;;;7.78;1.75;;;22.50;65.60;;;;;;4925671;28;87476;-76
2021/09/01 05:50:42;;;;;;;3.05;1.40;;;22.20;66.80;;;;;;4934786;28;88892;-76
2021/09/01 05:53:09;;;;;;;2.78;1.30;;;22.80;63.70;;;;;;4926469;28;87062;-73
2021/09/01 05:55:38;;;;;;;5.50;1.20;;;23.40;62.60;;;;;;4934062;28;87572;-73
2021/09/01 05:58:04;;;;;;;8.85;1.48;;;23.70;60.90;;;;;;4932849;28;88357;-74
2021/09/01 06:00:38;;;;;;;3.05;1.23;;;24.10;60.40;;;;;;4932689;28;87097;-73
2021/09/01 06:03:24;;;;;;;2.75;1.30;;;23.90;60.30;;;;;;4935541;28;86759;-73
2021/09/01 06:05:55;;;;;;;5.30;1.40;;;25.00;58.30;;;;;;4933554;28;86240;-73
2021/09/01 06:08:24;;;;;;;3.78;1.42;;;25.70;55.40;;;;;;4924571;28;87268;-73
2021/09/01 06:10:54;;;;;;;2.47;1.27;;;26.00;55.90;;;;;;4929267;28;88133;-73
2021/09/01 06:13:20;;;;;;;6.95;1.35;;;26.50;53.70;;;;;;4932692;28;87903;-74
2021/09/01 06:15:46;;;;;;;3.75;1.55;;;27.40;51.50;;;;;;4934603;28;86561;-73
2021/09/01 06:18:12;;;;;;;3.67;1.33;;;27.50;50.80;;;;;;4928374;28;87384;-74
2021/09/01 06:20:38;;;;;;;3.90;0.95;;;27.00;51.70;;;;;;4934796;28;87402;-76
2021/09/01 06:23:04;;;;;;;5.03;1.20;;;27.60;52.30;;;;;;4935263;28;86630;-76
2021/09/01 06:25:30;;;;;;;2.70;1.42;;;28.80;50.10;;;;;;4936781;28;86565;-76
2021/09/01 06:27:56;;;;;;;2.67;1.17;;;29.90;47.70;;;;;;4936171;28;87412;-76
2021/09/01 06:30:22;;;;;;;2.33;1.33;;;30.80;46.50;;;;;;4932477;28;87588;-76
2021/09/01 06:32:48;;;;;;;4.05;1.20;;;30.60;45.70;;;;;;4935947;28;87034;-76
2021/09/01 06:35:14;;;;;;;3.72;1.45;;;30.00;45.20;;;;;;4923641;28;87046;-76
2021/09/01 06:37:40;;;;;;;1.80;0.88;;;30.50;45.50;;;;;;4930505;28;89175;-74
2021/09/01 06:40:07;;;;;;;3.15;1.55;;;31.50;45.00;;;;;;4935882;28;88031;-74
2021/09/01 06:42:33;;;;;;;3.97;1.40;;;32.30;43.00;;;;;;4935293;28;86997;-74
2021/09/01 06:44:59;;;;;;;4.05;1.73;;;33.10;42.50;;;;;;4922574;28;87101;-74
2021/09/01 06:47:25;;;;;;;4.07;1.50;;;33.30;40.00;;;;;;4926490;28;87202;-75
2021/09/01 06:49:50;;;;;;;4.13;1.48;;;33.20;40.40;;;;;;4923104;28;87028;-74
2021/09/01 06:52:16;;;;;;;3.00;1.95;;;33.50;40.70;;;;;;4936084;28;86886;-74
2021/09/01 06:54:42;;;;;;;3.85;1.67;;;34.40;40.30;;;;;;4934092;28;86327;-74
2021/09/01 06:57:08;;;;;;;5.28;1.98;;;35.10;39.40;;;;;;4920189;28;87728;-74
2021/09/01 06:59:33;;;;;;;3.30;1.73;;;36.10;37.50;;;;;;4929670;28;87371;-74
2021/09/01 07:01:59;;;;;;;3.05;1.73;;;36.10;37.60;;;;;;4924060;28;87892;-74
2021/09/01 07:04:25;;;;;;;2.53;1.40;;;36.20;36.60;;;;;;4935543;28;86909;-74
2021/09/01 07:06:50;;;;;;;3.90;1.75;;;35.80;36.80;;;;;;4935099;28;88378;-74
2021/09/01 07:09:16;;;;;;;3.22;1.50;;;35.50;36.80;;;;;;4934996;28;87382;-76
2021/09/01 07:11:42;;;;;;;3.72;1.55;;;36.80;36.70;;;;;;4935732;28;86690;-73
2021/09/01 07:14:08;;;;;;;5.13;1.88;;;38.50;35.30;;;;;;4938071;28;87889;-74
2021/09/01 07:16:34;;;;;;;3.38;2.45;;;38.20;35.10;;;;;;4937537;28;87791;-74
2021/09/01 07:19:00;;;;;;;3.50;1.83;;;39.20;34.20;;;;;;4939454;28;86179;-74
2021/09/01 07:21:26;;;;;;;3.00;1.75;;;40.10;32.90;;;;;;4934777;28;87076;-74
2021/09/01 07:23:54;;;;;;;3.78;1.60;;;40.90;32.50;;;;;;4937802;28;86958;-74
2021/09/01 07:26:20;;;;;;;3.80;1.85;;;42.10;32.50;;;;;;4929919;28;88081;-74
2021/09/01 07:28:45;;;;;;;2.70;2.05;;;42.90;30.90;;;;;;4929119;28;88547;-74
2021/09/01 07:31:11;;;;;;;4.47;2.40;;;43.10;31.00;;;;;;4937223;28;86702;-74
2021/09/01 07:33:37;;;;;;;5.25;2.50;;;44.00;29.80;;;;;;4938218;28;86920;-74
2021/09/01 07:36:04;;;;;;;3.47;2.28;;;44.00;30.40;;;;;;4936824;28;89501;-74
2021/09/01 07:38:29;;;;;;;4.43;2.25;;;44.50;29.00;;;;;;4924810;28;88419;-74
2021/09/01 07:40:55;;;;;;;3.25;2.35;;;44.60;29.30;;;;;;4920528;28;87065;-74
2021/09/01 07:43:21;;;;;;;3.75;2.55;;;44.50;28.70;;;;;;4921749;28;86305;-74
2021/09/01 07:45:47;;;;;;;3.00;2.08;;;44.90;29.40;;;;;;4920077;28;87413;-74
2021/09/01 07:48:16;;;;;;;4.07;2.35;;;45.70;29.20;;;;;;4921549;28;88112;-74
2021/09/01 07:50:43;;;;;;;2.75;2.28;;;46.80;28.00;;;;;;4922428;28;87849;-74
2021/09/01 07:53:10;;;;;;;3.65;1.90;;;46.90;27.60;;;;;;4923133;28;87459;-74
2021/09/01 07:55:36;;;;;;;2.72;2.00;;;46.40;27.20;;;;;;4938764;28;88352;-74
2021/09/01 07:58:02;;;;;;;2.25;1.75;;;44.50;28.10;;;;;;4938396;28;86964;-74
2021/09/01 08:00:28;;;;;;;5.45;1.88;;;43.40;28.40;;;;;;4937747;28;88577;-74
2021/09/01 08:02:54;;;;;;;2.83;1.88;;;44.40;28.20;;;;;;4938113;28;86998;-74
2021/09/01 08:05:21;;;;;;;11.00;2.22;;;44.90;28.10;;;;;;4938678;28;87410;-74
2021/09/01 08:07:48;;;;;;;2.50;2.03;;;45.80;28.00;;;;;;4935829;28;86308;-74
2021/09/01 08:10:14;;;;;;;5.38;3.05;;;46.40;28.00;;;;;;4928939;28;87205;-74
2021/09/01 08:12:40;;;;;;;3.05;2.72;;;46.40;27.90;;;;;;4921794;28;87415;-74
2021/09/01 08:15:10;;;;;;;3.55;3.05;;;46.80;27.50;;;;;;4919359;28;88601;-74
2021/09/01 08:17:37;;;;;;;3.70;2.45;;;47.40;26.80;;;;;;4919461;28;88090;-74
2021/09/01 08:20:04;;;;;;;3.67;2.33;;;46.40;27.20;;;;;;4919898;28;86848;-74
2021/09/01 08:22:30;;;;;;;2.72;2.40;;;46.70;26.90;;;;;;4927149;28;87039;-74
2021/09/01 08:24:55;;;;;;;5.18;2.47;;;47.20;27.40;;;;;;4919130;28;87661;-74
2021/09/01 08:27:21;;;;;;;2.92;2.55;;;48.30;26.70;;;;;;4932707;28;87820;-74
2021/09/01 08:29:47;;;;;;;3.75;2.92;;;48.90;26.30;;;;;;4937847;28;87205;-74
2021/09/01 08:32:12;;;;;;;3.78;2.38;;;49.60;26.40;;;;;;4922429;28;86621;-75
2021/09/01 08:34:38;;;;;;;3.30;2.38;;;49.50;26.30;;;;;;4926360;28;87091;-74
2021/09/01 08:37:05;;;;;;;4.13;3.13;;;50.20;26.40;;;;;;4937578;28;86885;-74
2021/09/01 08:39:31;;;;;;;4.15;2.65;;;51.20;25.60;;;;;;4937625;28;88448;-74
2021/09/01 08:41:57;;;;;;;4.10;2.40;;;51.60;25.00;;;;;;4937389;28;86998;-74
2021/09/01 08:44:23;;;;;;;3.83;3.42;;;51.30;25.50;;;;;;4928808;28;87234;-74
2021/09/01 08:46:52;;;;;;;3.97;3.58;;;52.10;25.70;;;;;;4918645;28;87327;-74
2021/09/01 08:49:19;;;;;;;3.90;3.42;;;52.00;25.00;;;;;;4936307;28;87427;-74
2021/09/01 08:51:47;;;;;;;3.58;3.10;;;51.60;24.90;;;;;;4937165;28;87570;-74
2021/09/01 08:54:14;;;;;;;6.60;3.55;;;51.40;25.00;;;;;;4937105;28;87684;-74
2021/09/01 08:56:40;;;;;;;4.13;3.63;;;50.50;25.50;;;;;;4933665;28;88368;-74
2021/09/01 08:59:06;;;;;;;5.57;3.40;;;51.00;25.90;;;;;;4937768;28;86936;-74
2021/09/01 09:01:44;;;;;;;3.45;3.08;;;52.40;25.20;;;;;;4937624;28;86972;-75
2021/09/01 09:04:34;;;;;;;3.17;2.88;;;53.00;25.20;;;;;;4935874;28;88587;-74
2021/09/01 09:07:02;;;;;;;5.10;3.97;;;53.50;25.10;;;;;;4918372;28;88217;-74
2021/09/01 09:09:31;;;;;;;3.88;3.55;;;54.40;24.40;;;;;;4933922;28;87183;-74
2021/09/01 09:11:58;;;;;;;4.18;3.78;;;54.50;24.40;;;;;;4937800;28;87091;-75
2021/09/01 09:14:27;;;;;;;4.95;3.95;;;55.10;23.90;;;;;;4936964;28;87503;-74
2021/09/01 09:17:22;;;;;;;4.07;3.67;;;55.00;24.50;;;;;;4930105;28;87745;-74
2021/09/01 09:20:08;;;;;;;4.95;4.20;;;55.80;24.40;;;;;;4914814;28;87339;-74
2021/09/01 09:22:38;;;;;;;6.80;3.60;;;55.00;24.10;;;;;;4935227;28;86279;-74
2021/09/01 09:25:19;;;;;;;5.90;4.00;;;55.30;23.80;;;;;;4934379;28;87253;-74
2021/09/01 09:27:48;;;;;;;;;;;56.10;24.50;;;;;;4936071;28;86711;-74
2021/09/01 09:30:23;;;;;;;4.28;3.88;;;56.90;24.00;;;;;;4936522;28;88134;-74
2021/09/01 09:33:12;;;;;;;3.60;3.30;;;57.20;23.70;;;;;;4936147;28;87084;-74
2021/09/01 09:35:57;;;;;;;5.53;5.05;;;57.40;23.90;;;;;;4935272;28;87754;-74
2021/09/01 09:38:38;;;;;;;4.10;3.72;;;58.10;23.60;;;;;;4936553;28;86840;-73
2021/09/01 09:41:23;;;;;;;4.32;3.95;;;58.40;23.50;;;;;;4936348;28;86941;-75
2021/09/01 09:43:54;;;;;;;6.00;5.50;;;58.10;23.30;;;;;;4921304;28;87041;-74
2021/09/01 09:46:20;;;;;;;4.28;3.95;;;58.40;23.40;;;;;;4923757;28;87281;-74
2021/09/01 09:48:47;;;;;;;6.45;4.35;;;59.10;23.30;;;;;;4937051;28;86286;-74
2021/09/01 09:51:15;;;;;;;5.43;4.93;;;59.40;22.70;;;;;;4936814;28;86990;-74
2021/09/01 09:53:48;;;;;;;5.18;4.78;;;60.00;23.30;;;;;;4936283;28;87158;-75
2021/09/01 09:56:29;;;;;;;4.93;4.53;;;59.70;23.00;;;;;;4936609;28;88598;-75
2021/09/01 09:58:57;;;;;;;6.03;3.97;;;59.20;23.00;;;;;;4934913;28;88907;-74
2021/09/01 10:01:23;;;;;;;;;;;57.50;23.40;;;;;;4921008;28;87371;-74
2021/09/01 10:03:50;;;;;;;4.38;3.97;;;55.90;23.90;;;;;;4922525;28;87247;-75
2021/09/01 10:06:17;;;;;;;3.63;3.22;;;54.50;24.40;;;;;;4929812;28;87256;-74
2021/09/01 10:08:48;;;;;;;4.05;3.65;;;55.10;24.00;;;;;;4917742;28;87553;-74
2021/09/01 10:11:15;;;;;;;5.32;3.50;;;55.50;24.00;;;;;;4918487;28;87082;-74
2021/09/01 10:13:43;;;;;;;4.70;4.05;;;54.80;24.10;;;;;;4926347;28;86480;-74
2021/09/01 10:16:32;;;;;;;;;;;54.10;24.40;;;;;;4929450;28;88157;-74
2021/09/01 10:19:17;;;;;;;5.00;3.83;;;54.10;24.30;;;;;;4923949;28;87170;-74
2021/09/01 10:21:46;;;;;;;3.65;3.30;;;51.40;24.50;;;;;;4927050;28;88494;-74
2021/09/01 10:24:18;;;;;;;3.85;3.38;;;46.50;26.40;;;;;;4930403;28;86916;-74
2021/09/01 10:26:59;;;;;;;5.40;3.33;;;41.70;29.40;;;;;;4921656;28;87211;-73
2021/09/01 10:29:39;;;;;;;4.47;3.22;;;37.20;32.70;;;;;;4928488;28;86885;-73
2021/09/01 10:32:41;;;;;;;3.60;2.58;;;34.30;36.00;;;;;;4928060;28;87770;-73
2021/09/01 10:35:12;;;;;;;3.80;2.10;;;31.80;40.60;;;;;;4923733;28;86899;-75
2021/09/01 10:37:45;;;;;;;2.85;2.20;;;29.60;42.30;;;;;;4924080;28;87444;-73
2021/09/01 10:40:31;;;;;;;2.88;1.80;;;28.40;45.80;;;;;;4933842;28;86906;-73
2021/09/01 10:42:58;;;;;;;3.58;2.03;;;27.40;47.80;;;;;;4927542;28;87067;-75
2021/09/01 10:45:43;;;;;;;2.97;1.70;;;26.70;47.70;;;;;;4932705;28;87138;-74
2021/09/01 10:48:11;;;;;;;4.60;1.92;;;26.30;46.80;;;;;;4922431;28;88693;-75
2021/09/01 10:50:43;;;;;;;3.30;1.60;;;25.80;49.90;;;;;;4936698;28;87894;-74
2021/09/01 10:53:22;;;;;;;2.95;1.38;;;25.50;52.50;;;;;;4938343;28;87396;-74
2021/09/01 10:55:50;;;;;;;6.30;1.42;;;25.40;50.40;;;;;;4935956;28;86735;-75
2021/09/01 10:58:34;;;;;;;3.55;2.15;;;25.20;50.70;;;;;;4936463;28;90620;-75
2021/09/01 11:01:06;;;;;;;4.32;2.00;;;25.00;53.00;;;;;;4932888;28;88174;-74
2021/09/01 11:03:40;;;;;;;2.60;1.45;;;24.60;55.10;;;;;;4933869;28;87343;-75
2021/09/01 11:06:33;;;;;;;4.35;1.88;;;24.50;55.90;;;;;;4939683;28;86082;-74
2021/09/01 11:08:59;;;;;;;3.67;1.80;;;24.70;56.00;;;;;;4931724;28;87682;-74
2021/09/01 11:11:40;;;;;;;3.55;1.90;;;24.30;54.70;;;;;;4934197;28;88030;-75
2021/09/01 11:14:05;;;;;;;5.10;2.20;;;23.90;57.10;;;;;;4933165;28;88258;-75
2021/09/01 11:16:31;;;;;;;3.03;1.38;;;23.80;56.70;;;;;;4934690;28;87063;-74
2021/09/01 11:18:58;;;;;;;3.58;1.67;;;23.90;60.10;;;;;;4936136;28;86998;-74
2021/09/01 11:21:24;;;;;;;4.47;1.50;;;23.80;55.20;;;;;;4929777;28;90349;-72
2021/09/01 11:23:49;;;;;;;3.03;1.23;;;23.60;56.40;;;;;;4938984;28;87098;-73
2021/09/01 11:26:15;;;;;;;2.55;1.20;;;23.70;57.30;;;;;;4934574;28;87168;-75
2021/09/01 11:32:03;;;;;;;4.32;1.50;;;23.70;56.70;;;;;;4933875;28;86490;-71
2021/09/01 11:34:30;;;;;;;3.13;1.23;;;23.40;56.60;;;;;;4932421;28;86964;-74
2021/09/01 11:36:56;;;;;;;3.38;1.55;;;23.30;58.10;;;;;;4934656;28;88728;-75
2021/09/01 11:39:21;;;;;;;2.67;1.40;;;23.50;54.40;;;;;;4938437;28;88803;-74
2021/09/01 11:41:58;;;;;;;3.20;1.75;;;23.50;53.20;;;;;;4936113;28;87340;-74
2021/09/01 11:44:23;;;;;;;2.70;1.40;;;23.30;56.40;;;;;;4930782;28;87165;-74
2021/09/01 11:46:49;;;;;;;2.42;1.33;;;23.40;55.70;;;;;;4935599;28;87064;-74
2021/09/01 11:49:15;;;;;;;4.15;1.80;;;23.40;56.00;;;;;;4936395;28;89513;-73
2021/09/01 11:51:43;;;;;;;3.13;1.30;;;23.40;56.80;;;;;;4936402;28;87459;-74
2021/09/01 11:54:10;;;;;;;3.28;1.45;;;23.60;55.90;;;;;;4937491;28;87706;-74
2021/09/01 11:56:37;;;;;;;3.17;1.38;;;23.70;55.60;;;;;;4937923;28;86329;-75
2021/09/01 11:59:10;;;;;;;3.25;1.33;;;23.60;52.00;;;;;;4937192;28;89640;-74
2021/09/01 12:01:57;;;;;;;2.88;1.30;;;23.70;55.80;;;;;;4936768;28;87019;-74
2021/09/01 12:04:24;;;;;;;3.67;1.15;;;23.90;54.50;;;;;;4932878;28;88537;-74
2021/09/01 12:06:54;;;;;;;3.03;1.38;;;24.00;54.40;;;;;;4935748;28;87173;-75
2021/09/01 12:09:21;;;;;;;2.65;1.20;;;24.00;54.30;;;;;;4936826;28;87204;-74
2021/09/01 12:11:56;;;;;;;3.67;1.17;;;24.00;53.80;;;;;;4938010;28;88201;-74
2021/09/01 12:14:27;;;;;;;4.05;1.42;;;23.90;57.00;;;;;;4936741;28;87150;-74
2021/09/01 12:16:54;;;;;;;3.38;1.23;;;24.00;53.80;;;;;;4938144;28;88336;-75
2021/09/01 12:19:21;;;;;;;2.38;1.08;;;23.80;51.00;;;;;;4932805;28;87060;-74
2021/09/01 12:21:58;;;;;;;3.70;1.23;;;23.70;52.70;;;;;;4934583;28;87449;-76
2021/09/01 12:24:32;;;;;;;3.58;1.17;;;23.70;55.00;;;;;;4937794;28;87614;-75
2021/09/01 12:27:08;;;;;;;6.63;1.58;;;23.80;54.20;;;;;;4937288;28;87207;-75
2021/09/01 12:29:35;;;;;;;3.15;1.20;;;23.70;51.90;;;;;;4935822;28;89375;-74
2021/09/01 12:32:01;;;;;;;2.70;1.23;;;23.80;52.70;;;;;;4934210;28;87675;-74
2021/09/01 12:34:43;;;;;;;3.17;1.52;;;23.60;53.40;;;;;;4937765;28;87090;-74
2021/09/01 12:37:14;;;;;;;4.80;1.40;;;23.70;53.00;;;;;;4937388;28;87158;-75
2021/09/01 12:40:09;;;;;;;2.67;1.10;;;23.80;54.20;;;;;;4933568;28;88274;-75
2021/09/01 12:42:43;;;;;;;3.78;1.40;;;23.80;55.60;;;;;;4934919;28;87571;-75
2021/09/01 12:45:14;;;;;;;3.53;1.30;;;23.90;54.40;;;;;;4937852;28;87484;-74
2021/09/01 12:48:04;;;;;;;2.60;1.35;;;23.90;53.20;;;;;;4935577;28;86304;-74
2021/09/01 12:50:39;;;;;;;3.67;1.30;;;23.80;53.70;;;;;;4937052;28;88150;-75
2021/09/01 12:53:06;;;;;;;3.05;1.20;;;23.70;52.40;;;;;;4921675;28;87479;-74
2021/09/01 12:55:37;;;;;;;2.72;1.38;;;23.50;53.80;;;;;;4929375;28;89152;-75
2021/09/01 12:58:03;;;;;;;3.33;1.33;;;23.50;52.40;;;;;;4936500;28;86978;-74
2021/09/01 13:00:29;;;;;;;4.00;1.27;;;23.50;55.40;;;;;;4936564;28;87600;-74
2021/09/01 13:02:54;;;;;;;3.10;1.63;;;23.60;54.60;;;;;;4929094;28;86896;-75
2021/09/01 13:05:21;;;;;;;2.95;1.33;;;23.70;55.20;;;;;;4935782;28;86698;-73
2021/09/01 13:07:47;;;;;;;4.18;1.38;;;23.60;54.10;;;;;;4935742;28;87457;-74
2021/09/01 13:10:15;;;;;;;3.47;1.65;;;23.50;53.40;;;;;;4933338;28;90206;-73
2021/09/01 13:12:40;;;;;;;2.97;1.42;;;23.40;54.10;;;;;;4931546;28;87018;-75
2021/09/01 13:15:08;;;;;;;4.47;1.85;;;23.40;53.10;;;;;;4936700;28;86990;-74
2021/09/01 13:17:35;;;;;;;3.80;1.60;;;23.30;54.20;;;;;;4936597;28;87170;-74
2021/09/01 13:20:01;;;;;;;6.22;1.65;;;23.20;55.80;;;;;;4934632;28;88128;-74
2021/09/01 13:22:26;;;;;;;2.90;1.45;;;23.10;54.60;;;;;;4935038;28;89068;-74
2021/09/01 13:24:52;;;;;;;3.33;1.65;;;23.10;53.40;;;;;;4932696;28;87264;-74
2021/09/01 13:27:18;;;;;;;2.90;1.38;;;23.00;52.50;;;;;;4936612;28;87111;-73
2021/09/01 13:29:43;;;;;;;3.30;1.30;;;22.90;54.20;;;;;;4936766;28;87549;-74
2021/09/01 13:32:09;;;;;;;2.47;1.17;;;22.90;52.70;;;;;;4922840;28;87053;-73
2021/09/01 13:34:35;;;;;;;3.05;1.50;;;22.90;54.10;;;;;;4934962;28;87112;-73
2021/09/01 13:37:01;;;;;;;3.50;1.25;;;22.90;54.00;;;;;;4936497;28;85941;-73
2021/09/01 13:39:26;;;;;;;2.92;1.52;;;22.90;54.10;;;;;;4935049;28;88732;-74
2021/09/01 13:41:52;;;;;;;2.53;1.27;;;22.90;54.60;;;;;;4933998;28;88062;-74
2021/09/01 13:44:18;;;;;;;4.00;1.55;;;22.80;55.40;;;;;;4929173;28;87976;-74
2021/09/01 13:46:43;;;;;;;3.03;1.15;;;22.80;56.30;;;;;;4935911;28;87484;-75
2021/09/01 13:49:09;;;;;;;3.50;1.45;;;22.80;55.30;;;;;;4935783;28;87086;-74
2021/09/01 13:51:36;;;;;;;2.45;1.20;;;22.80;55.20;;;;;;4930081;28;87191;-74
2021/09/01 13:54:02;;;;;;;2.70;1.40;;;22.80;55.70;;;;;;4931651;28;87529;-74
2021/09/01 13:56:29;;;;;;;3.97;2.22;;;22.80;56.70;;;;;;4935012;28;87018;-75
2021/09/01 13:58:56;;;;;;;3.90;1.40;;;22.70;55.30;;;;;;4932769;28;89515;-74
2021/09/01 14:01:23;;;;;;;6.97;1.30;;;22.70;55.20;;;;;;4924176;28;87124;-76
2021/09/01 14:03:54;;;;;;;3.97;1.73;;;22.60;55.30;;;;;;4925294;28;87203;-73
2021/09/01 14:06:19;;;;;;;3.75;1.75;;;22.60;54.80;;;;;;4934533;28;87495;-73
2021/09/01 14:08:45;;;;;;;3.95;1.40;;;22.60;54.50;;;;;;4932877;28;89018;-72
2021/09/01 14:11:11;;;;;;;3.90;1.63;;;22.50;56.00;;;;;;4927345;28;88575;-73
2021/09/01 14:13:38;;;;;;;2.80;1.50;;;22.50;55.50;;;;;;4933239;28;87161;-72
2021/09/01 14:16:04;;;;;;;2.67;1.20;;;22.50;56.00;;;;;;4934517;28;87464;-73
2021/09/01 14:18:30;;;;;;;3.15;1.33;;;22.50;54.60;;;;;;4927364;28;89799;-72
2021/09/01 14:20:56;;;;;;;2.35;1.20;;;22.40;56.60;;;;;;4927315;28;87928;-72
2021/09/01 14:23:22;;;;;;;4.30;1.90;;;22.40;56.60;;;;;;4932843;28;87179;-73
2021/09/01 14:25:48;;;;;;;2.63;1.52;;;22.50;55.80;;;;;;4932418;28;86260;-73
2021/09/01 14:28:13;;;;;;;3.22;1.63;;;22.50;55.80;;;;;;4931044;28;87273;-73
2021/09/01 14:30:39;;;;;;;3.60;1.52;;;22.50;57.20;;;;;;4922686;28;87787;-72
2021/09/01 14:33:07;;;;;;;4.10;1.55;;;22.40;56.70;;;;;;4933716;28;88115;-72
2021/09/01 14:35:35;;;;;;;3.47;1.58;;;22.50;56.00;;;;;;4932841;28;86667;-73
2021/09/01 14:38:00;;;;;;;3.10;1.35;;;22.50;56.00;;;;;;4931544;28;87412;-73
2021/09/01 14:40:26;;;;;;;3.17;1.50;;;22.40;55.60;;;;;;4932475;28;88278;-73
2021/09/01 14:42:52;;;;;;;2.83;1.70;;;22.40;56.70;;;;;;4936660;28;87002;-73
2021/09/01 14:45:18;;;;;;;5.47;1.20;;;22.40;56.50;;;;;;4937778;28;87423;-73
2021/09/01 14:47:44;;;;;;;2.97;1.42;;;22.40;56.30;;;;;;4934314;28;87392;-73
2021/09/01 14:50:10;;;;;;;2.60;1.48;;;22.40;56.50;;;;;;4931582;28;87986;-74
2021/09/01 14:52:36;;;;;;;4.38;1.52;;;22.30;56.00;;;;;;4932407;28;86914;-74
2021/09/01 14:55:03;;;;;;;5.55;1.58;;;22.30;57.90;;;;;;4934154;28;87619;-73
2021/09/01 14:57:28;;;;;;;3.45;1.80;;;22.30;57.10;;;;;;4932683;28;87980;-74
2021/09/01 14:59:54;;;;;;;3.80;1.70;;;22.30;57.10;;;;;;4934790;28;88272;-73
2021/09/01 15:02:20;;;;;;;2.95;1.40;;;22.30;57.20;;;;;;4934438;28;87973;-73
2021/09/01 15:04:45;;;;;;;3.83;1.83;;;22.30;56.30;;;;;;4934904;28;87002;-73
2021/09/01 15:07:11;;;;;;;2.80;1.45;;;22.20;56.60;;;;;;4934716;28;87508;-73
2021/09/01 15:09:37;;;;;;;3.63;1.80;;;22.20;59.20;;;;;;4934356;28;86934;-73
2021/09/01 15:12:03;;;;;;;4.28;1.83;;;22.20;58.80;;;;;;4934477;28;87015;-72
2021/09/01 15:14:29;;;;;;;4.05;1.42;;;22.20;58.50;;;;;;4934924;28;86353;-74
2021/09/01 15:16:54;;;;;;;3.80;1.88;;;22.20;59.00;;;;;;4935479;28;87778;-73
2021/09/01 15:19:20;;;;;;;3.40;2.05;;;22.20;58.00;;;;;;4934915;28;87444;-74
2021/09/01 15:21:46;;;;;;;3.97;1.92;;;22.10;57.70;;;;;;4934955;28;87932;-73
2021/09/01 15:24:14;;;;;;;3.50;2.00;;;22.10;58.30;;;;;;4932145;28;87020;-73
2021/09/01 15:26:40;;;;;;;3.70;1.45;;;22.10;58.90;;;;;;4931977;28;87370;-74
2021/09/01 15:29:05;;;;;;;4.32;1.80;;;22.00;58.70;;;;;;4935028;28;87566;-73
2021/09/01 15:31:31;;;;;;;5.50;1.80;;;22.00;59.00;;;;;;4928487;28;86992;-74
2021/09/01 15:33:57;;;;;;;3.75;1.92;;;22.00;59.70;;;;;;4933378;28;87037;-73
2021/09/01 15:36:22;;;;;;;4.40;1.98;;;21.90;59.90;;;;;;4938182;28;87005;-74
2021/09/01 15:38:48;;;;;;;5.38;1.58;;;21.90;59.80;;;;;;4933455;28;87322;-73
2021/09/01 15:41:14;;;;;;;3.88;1.55;;;21.90;61.00;;;;;;4937007;28;87221;-73
2021/09/01 15:43:44;;;;;;;4.93;2.03;;;21.90;59.90;;;;;;4944542;28;87153;-73